Blackfoot, Idaho
Current Conditions -  °F | °C
As of 11:53 PM on Wednesday 22 Oct 2014 (Local Time) from KPIH Reporting Station
Clear Clear  
Wind Chill: 51°   Ceiling: Unl
Heat Index: 51°   Visibility: 10mi
Dew Point: 26°   Wind: 3mph
Humidity: 38%   Direction: 30°NNE
Pressure: 30.12"   Gusts: NA
Location:  43.19°N, 112.34°W
Report Text: KPIH 230553Z AUTO 03003KT 10SM CLR 11/M03 A3012 RMK AO2 SLP184 T01061033 10139 20083 55004
Loading
Personal Weather Stations






























Interactive Weather Map
Tropical Storm Tracking
New forecast layout! Learn more

10-Day Weather Forecast

Advertisements
Track Severe Weather on mobile